Terminal Aerodrome Forecast
Issued by NWS

Home | Current Version | Previous Version | Text Only | Print | Product List | Glossary On
Versions: 1 2 3 4 5 6 7 8 9 10 11 12 13
000
FTUS44 KLIX 061730
TAFMCB
TAF
KMCB 061730Z 0618/0718 35007KT P6SM SKC
     FM070600 03004KT P6SM SKC
     FM071400 VRB05KT P6SM SKC=

USA.gov is the U.S. government's official web portal to all federal, state and local government web resources and services.